Time;durP1;ratioP1;P1;durP2;ratioP2;P2;SDS_P1;SDS_P2;PMS_P1;PMS_P2;Temp;Humidity;BMP_temperature;BMP_pressure;BME280_temperature;BME280_humidity;BME280_pressure;Samples;Min_cycle;Max_cycle;Signal;HPM_P1;HPM_P2
2021/04/24 00:00:21;;;;;;;1.70;1.60;;;5.90;99.90;;;;;;5040096;28;20421;-77
2021/04/24 00:02:46;;;;;;;1.60;1.35;;;5.80;99.90;;;;;;4992799;28;20388;-78
2021/04/24 00:05:33;;;;;;;1.70;1.60;;;5.80;99.90;;;;;;4987941;28;20927;-78
2021/04/24 00:08:06;;;;;;;1.77;1.63;;;5.80;99.90;;;;;;5008797;28;20799;-78
2021/04/24 00:10:34;;;;;;;2.40;2.00;;;5.90;99.90;;;;;;4979930;28;20390;-78
2021/04/24 00:13:00;;;;;;;2.20;2.00;;;5.90;99.90;;;;;;5029152;28;20536;-78
2021/04/24 00:15:27;;;;;;;3.15;2.20;;;5.90;99.90;;;;;;5012100;28;20390;-78
2021/04/24 00:17:52;;;;;;;3.25;2.63;;;5.90;99.90;;;;;;5028886;28;20393;-78
2021/04/24 00:20:20;;;;;;;2.67;2.47;;;5.80;99.90;;;;;;5015362;28;20406;-78
2021/04/24 00:22:46;;;;;;;4.05;2.70;;;5.80;99.90;;;;;;5042731;28;20398;-78
2021/04/24 00:25:12;;;;;;;5.68;3.00;;;5.90;99.90;;;;;;5023098;28;20403;-78
2021/04/24 00:27:37;;;;;;;3.78;3.10;;;5.70;99.90;;;;;;5013589;28;20391;-79
2021/04/24 00:30:05;;;;;;;4.20;3.25;;;5.70;99.90;;;;;;4987298;28;20390;-79
2021/04/24 00:32:31;;;;;;;3.90;2.80;;;5.60;99.90;;;;;;5032927;28;20866;-79
2021/04/24 00:34:57;;;;;;;4.45;2.80;;;5.50;99.90;;;;;;5030421;28;20450;-79
2021/04/24 00:37:22;;;;;;;5.07;2.70;;;5.50;99.90;;;;;;5063533;28;20730;-79
2021/04/24 00:39:48;;;;;;;5.20;3.20;;;5.40;99.90;;;;;;4998581;28;20768;-79
2021/04/24 00:42:14;;;;;;;4.13;2.70;;;5.30;99.90;;;;;;5027529;28;20820;-78
2021/04/24 00:44:47;;;;;;;3.30;2.80;;;5.50;99.90;;;;;;5031759;28;20428;-79
2021/04/24 00:47:13;;;;;;;4.55;3.13;;;5.30;99.90;;;;;;4997761;28;20445;-79
2021/04/24 00:49:39;;;;;;;5.63;2.97;;;5.30;99.90;;;;;;5031713;28;20398;-79
2021/04/24 00:52:05;;;;;;;3.25;2.88;;;5.20;99.90;;;;;;5002243;28;20399;-79
2021/04/24 00:54:31;;;;;;;4.97;3.00;;;5.00;99.90;;;;;;5038239;28;20756;-79
2021/04/24 00:56:57;;;;;;;5.70;3.17;;;4.90;99.90;;;;;;5051976;28;20409;-79
2021/04/24 00:59:23;;;;;;;3.38;2.70;;;4.90;99.90;;;;;;5022204;28;20960;-79
2021/04/24 01:01:49;;;;;;;2.72;2.35;;;4.90;99.90;;;;;;5027877;28;21194;-80
2021/04/24 01:04:14;;;;;;;3.67;2.67;;;4.80;99.90;;;;;;5044814;28;20380;-79
2021/04/24 01:06:40;;;;;;;2.40;2.20;;;4.80;99.90;;;;;;5028852;28;20895;-79
2021/04/24 01:09:06;;;;;;;4.70;2.87;;;5.00;99.90;;;;;;5030456;28;20401;-78
2021/04/24 01:11:32;;;;;;;4.13;2.92;;;4.80;99.90;;;;;;4995121;28;20461;-79
2021/04/24 01:13:57;;;;;;;4.32;3.13;;;4.80;99.90;;;;;;5018917;28;20850;-79
2021/04/24 01:16:26;;;;;;;4.65;2.80;;;4.80;99.90;;;;;;5043679;28;21014;-78
2021/04/24 01:18:52;;;;;;;2.50;2.30;;;4.60;99.90;;;;;;5034229;28;20762;-79
2021/04/24 01:21:18;;;;;;;2.60;2.40;;;4.40;99.90;;;;;;5045956;28;20401;-79
2021/04/24 01:23:44;;;;;;;3.92;2.72;;;4.40;99.90;;;;;;5008621;28;20807;-79
2021/04/24 01:26:09;;;;;;;4.47;2.80;;;4.30;99.90;;;;;;5029409;28;20405;-79
2021/04/24 01:28:35;;;;;;;3.87;3.03;;;4.20;99.90;;;;;;5022567;28;20783;-78
2021/04/24 01:31:01;;;;;;;4.28;2.90;;;4.20;99.90;;;;;;4989694;28;21172;-78
2021/04/24 01:33:28;;;;;;;2.30;2.10;;;4.20;99.90;;;;;;5006140;28;20290;-79
2021/04/24 01:35:54;;;;;;;4.07;2.97;;;4.20;99.90;;;;;;5046333;28;20217;-78
2021/04/24 01:38:20;;;;;;;5.80;3.23;;;4.10;99.90;;;;;;5032549;28;20266;-79
2021/04/24 01:40:46;;;;;;;3.77;3.07;;;4.00;99.90;;;;;;5032753;28;20218;-78
2021/04/24 01:43:12;;;;;;;2.73;2.50;;;4.00;99.90;;;;;;5015231;28;20287;-79
2021/04/24 01:45:38;;;;;;;3.87;2.30;;;3.90;99.90;;;;;;5006520;28;20244;-79
2021/04/24 01:48:07;;;;;;;2.43;2.23;;;3.70;99.90;;;;;;5003615;28;20298;-79
2021/04/24 01:50:40;;;;;;;1.97;1.87;;;3.60;99.90;;;;;;5047934;28;20252;-79
2021/04/24 01:53:07;;;;;;;2.43;1.70;;;3.50;99.90;;;;;;5020190;28;20287;-78
2021/04/24 01:55:34;;;;;;;3.30;2.30;;;3.40;99.90;;;;;;5022361;28;20249;-78
2021/04/24 01:58:00;;;;;;;1.70;1.60;;;3.40;99.90;;;;;;5009421;28;20256;-79
2021/04/24 02:00:29;;;;;;;2.83;2.50;;;3.50;99.90;;;;;;5024661;28;20819;-79
2021/04/24 02:02:55;;;;;;;6.33;2.17;;;3.40;99.90;;;;;;5030649;28;20217;-78
2021/04/24 02:05:21;;;;;;;1.80;1.70;;;3.40;99.90;;;;;;4977642;28;20221;-79
2021/04/24 02:07:56;;;;;;;1.70;1.60;;;3.40;99.90;;;;;;5013103;28;20218;-79
2021/04/24 02:10:22;;;;;;;2.33;1.73;;;3.30;99.90;;;;;;5026312;28;20592;-78
2021/04/24 02:12:47;;;;;;;1.80;1.70;;;3.30;99.90;;;;;;4984836;28;20226;-78
2021/04/24 02:15:13;;;;;;;2.20;2.10;;;3.30;99.90;;;;;;5023313;28;20287;-78
2021/04/24 02:17:39;;;;;;;2.87;2.03;;;3.30;99.90;;;;;;4993956;28;20222;-78
2021/04/24 02:20:05;;;;;;;2.37;2.17;;;3.40;99.90;;;;;;4975693;28;20238;-78
2021/04/24 02:22:31;;;;;;;2.90;1.90;;;3.30;99.90;;;;;;4997488;28;20272;-79
2021/04/24 02:24:59;;;;;;;2.00;1.57;;;3.20;99.90;;;;;;5053106;28;20463;-78
2021/04/24 02:27:25;;;;;;;2.00;1.80;;;3.30;99.90;;;;;;5025412;28;20272;-78
2021/04/24 02:29:51;;;;;;;10.17;2.40;;;3.20;99.90;;;;;;5027824;28;20293;-78
2021/04/24 02:32:18;;;;;;;1.97;1.77;;;3.20;99.90;;;;;;5042602;28;20256;-78
2021/04/24 02:34:45;;;;;;;2.10;2.00;;;3.20;99.90;;;;;;5026762;28;20253;-78
2021/04/24 02:37:12;;;;;;;3.50;2.50;;;3.20;99.90;;;;;;5003051;28;20211;-78
2021/04/24 02:39:40;;;;;;;3.07;2.00;;;3.20;99.90;;;;;;5041360;28;20312;-79
2021/04/24 02:42:07;;;;;;;3.40;1.90;;;3.10;99.90;;;;;;5012098;28;20221;-78
2021/04/24 02:44:33;;;;;;;1.60;1.50;;;3.10;99.90;;;;;;5030731;28;20245;-78
2021/04/24 02:46:58;;;;;;;2.17;1.87;;;3.10;99.90;;;;;;5014682;28;20241;-78
2021/04/24 02:49:24;;;;;;;3.60;1.97;;;3.10;99.90;;;;;;4992771;28;20290;-78
2021/04/24 02:51:51;;;;;;;1.63;1.53;;;3.10;99.90;;;;;;5026645;28;20589;-79
2021/04/24 02:54:17;;;;;;;2.30;1.70;;;3.20;99.90;;;;;;5030185;28;20279;-79
2021/04/24 02:56:43;;;;;;;2.87;2.30;;;3.20;99.90;;;;;;5029098;28;21030;-78
2021/04/24 02:59:08;;;;;;;1.70;1.60;;;3.20;99.90;;;;;;5012721;28;20320;-78
2021/04/24 03:01:34;;;;;;;1.73;1.63;;;3.30;99.90;;;;;;4983810;28;20217;-78
2021/04/24 03:04:00;;;;;;;2.50;1.77;;;3.20;99.90;;;;;;5024963;28;20709;-78
2021/04/24 03:06:26;;;;;;;1.90;1.80;;;3.20;99.90;;;;;;5012573;28;20217;-78
2021/04/24 03:08:51;;;;;;;3.37;1.93;;;3.20;99.90;;;;;;5046521;28;20213;-78
2021/04/24 03:11:17;;;;;;;1.63;1.53;;;3.20;99.90;;;;;;5046626;28;20629;-78
2021/04/24 03:13:43;;;;;;;1.87;1.73;;;3.10;99.90;;;;;;5030732;28;20664;-78
2021/04/24 03:16:09;;;;;;;1.90;1.80;;;3.10;99.90;;;;;;5007416;28;20297;-78
2021/04/24 03:18:34;;;;;;;1.67;1.57;;;3.00;99.90;;;;;;5030998;28;20225;-78
2021/04/24 03:21:00;;;;;;;1.57;1.47;;;2.90;99.90;;;;;;5026947;28;20221;-78
2021/04/24 03:23:26;;;;;;;1.70;1.53;;;2.90;99.90;;;;;;4992609;28;20216;-78
2021/04/24 03:25:51;;;;;;;1.43;1.33;;;2.90;99.90;;;;;;5028832;28;20229;-78
2021/04/24 03:28:17;;;;;;;2.13;1.93;;;2.90;99.90;;;;;;5022018;28;20214;-78
2021/04/24 03:30:43;;;;;;;1.80;1.70;;;2.90;99.90;;;;;;5015775;28;20890;-78
2021/04/24 03:33:08;;;;;;;3.50;1.87;;;2.80;99.90;;;;;;5032909;28;20221;-78
2021/04/24 03:35:34;;;;;;;1.50;1.40;;;2.70;99.90;;;;;;5005825;28;20208;-77
2021/04/24 03:38:00;;;;;;;4.77;2.20;;;2.70;99.90;;;;;;5033496;28;20228;-78
2021/04/24 03:40:25;;;;;;;1.80;1.70;;;2.70;99.90;;;;;;5032388;28;20209;-78
2021/04/24 03:42:51;;;;;;;1.80;1.70;;;2.60;99.90;;;;;;5033800;28;20274;-79
2021/04/24 03:45:18;;;;;;;1.60;1.50;;;2.60;99.90;;;;;;5008318;28;20209;-79
2021/04/24 03:47:50;;;;;;;2.07;1.53;;;2.70;99.90;;;;;;5013977;28;20220;-78
2021/04/24 03:50:16;;;;;;;1.90;1.53;;;2.60;99.90;;;;;;5028009;28;20202;-79
2021/04/24 03:52:43;;;;;;;1.90;1.80;;;2.60;99.90;;;;;;5038739;28;20215;-79
2021/04/24 03:55:09;;;;;;;1.53;1.43;;;2.60;99.90;;;;;;5013789;28;20596;-79
2021/04/24 03:57:35;;;;;;;1.50;1.40;;;2.60;99.90;;;;;;5033108;28;20205;-80
2021/04/24 04:00:00;;;;;;;3.43;1.70;;;2.60;99.90;;;;;;5016830;28;20636;-79
2021/04/24 04:02:26;;;;;;;2.03;1.83;;;2.60;99.90;;;;;;5009316;28;20293;-79
2021/04/24 04:04:52;;;;;;;2.73;1.60;;;2.70;99.90;;;;;;5020428;28;20222;-77
2021/04/24 04:07:18;;;;;;;1.57;1.47;;;2.50;99.90;;;;;;5004733;28;20218;-77
2021/04/24 04:09:44;;;;;;;1.67;1.57;;;2.50;99.90;;;;;;5014437;28;20241;-77
2021/04/24 04:12:10;;;;;;;2.37;2.17;;;2.50;99.90;;;;;;5032372;28;20225;-79
2021/04/24 04:14:35;;;;;;;2.23;1.73;;;2.40;99.90;;;;;;4998299;28;20721;-79
2021/04/24 04:17:01;;;;;;;1.67;1.57;;;2.30;99.90;;;;;;4997445;28;20229;-80
2021/04/24 04:19:27;;;;;;;1.77;1.67;;;2.50;99.90;;;;;;5033050;28;20259;-79
2021/04/24 04:21:53;;;;;;;1.00;1.00;;;2.30;99.90;;;;;;5066348;28;20225;-79
2021/04/24 04:24:18;;;;;;;4.50;1.97;;;2.30;99.90;;;;;;5026254;28;20297;-80
2021/04/24 04:26:44;;;;;;;1.90;1.50;;;2.30;99.90;;;;;;5018835;28;20299;-79
2021/04/24 04:29:10;;;;;;;1.40;1.33;;;2.30;99.90;;;;;;5044341;28;20258;-79
2021/04/24 04:31:36;;;;;;;1.83;1.73;;;2.40;99.90;;;;;;5013182;28;20232;-79
2021/04/24 04:34:02;;;;;;;1.73;1.63;;;2.30;99.90;;;;;;5009642;28;20632;-79
2021/04/24 04:36:28;;;;;;;1.67;1.57;;;2.30;99.90;;;;;;5019831;28;20214;-79
2021/04/24 04:38:54;;;;;;;1.67;1.57;;;2.30;99.90;;;;;;5027405;28;20226;-79
2021/04/24 04:41:19;;;;;;;1.40;1.20;;;2.40;99.90;;;;;;5028853;28;20244;-79
2021/04/24 04:43:45;;;;;;;1.93;1.83;;;2.40;99.90;;;;;;5038557;28;20697;-77
2021/04/24 04:46:11;;;;;;;1.87;1.60;;;2.40;99.90;;;;;;5043084;28;20221;-78
2021/04/24 04:48:37;;;;;;;2.63;2.43;;;2.60;99.90;;;;;;5033791;28;20223;-79
2021/04/24 04:51:03;;;;;;;2.63;1.87;;;2.70;99.90;;;;;;5024902;28;20273;-80
2021/04/24 04:57:02;;;;;;;1.80;1.50;;;2.70;99.90;;;;;;4970817;28;20227;-78
2021/04/24 04:59:28;;;;;;;1.63;1.53;;;3.00;99.90;;;;;;4955007;28;20220;-77
2021/04/24 05:01:57;;;;;;;1.57;1.47;;;3.00;99.90;;;;;;4976938;28;20299;-77
2021/04/24 05:04:23;;;;;;;2.87;1.70;;;3.10;99.90;;;;;;4955293;28;20256;-78
2021/04/24 05:06:49;;;;;;;1.40;1.33;;;3.20;99.90;;;;;;4972391;28;20387;-78
2021/04/24 05:09:16;;;;;;;1.70;1.60;;;3.30;99.90;;;;;;4972095;28;20356;-78
2021/04/24 05:11:42;;;;;;;2.80;1.97;;;3.40;99.90;;;;;;4953339;28;20222;-77
2021/04/24 05:14:07;;;;;;;2.10;1.70;;;3.50;99.90;;;;;;4997470;28;20244;-78
2021/04/24 05:16:33;;;;;;;2.03;1.83;;;3.60;99.90;;;;;;4980507;28;20228;-78
2021/04/24 05:18:59;;;;;;;2.43;1.97;;;3.70;99.90;;;;;;4956562;28;20299;-78
2021/04/24 05:21:31;;;;;;;2.10;1.93;;;3.70;99.90;;;;;;4953926;28;20224;-79
2021/04/24 05:23:58;;;;;;;2.27;1.50;;;3.80;99.90;;;;;;4990980;28;20220;-79
2021/04/24 05:26:24;;;;;;;2.50;2.17;;;3.80;99.90;;;;;;4972416;28;20216;-80
2021/04/24 05:28:50;;;;;;;2.73;1.77;;;3.80;99.90;;;;;;4942561;28;20222;-81
2021/04/24 05:31:16;;;;;;;2.60;2.05;;;3.80;99.90;;;;;;4941130;28;20428;-79
2021/04/24 05:33:41;;;;;;;2.17;2.03;;;3.90;99.90;;;;;;4988588;28;21150;-80
2021/04/24 05:36:13;;;;;;;3.27;2.30;;;3.90;99.90;;;;;;4962090;28;20431;-79
2021/04/24 05:38:38;;;;;;;2.60;2.00;;;4.00;99.90;;;;;;4946625;28;20980;-78
2021/04/24 05:41:05;;;;;;;2.60;2.20;;;4.10;99.90;;;;;;4969526;28;20425;-79
2021/04/24 05:43:31;;;;;;;2.90;2.13;;;4.20;99.90;;;;;;4976347;28;20400;-79
2021/04/24 05:45:56;;;;;;;2.20;2.00;;;4.30;99.90;;;;;;4969026;28;20748;-78
2021/04/24 05:48:22;;;;;;;3.93;2.23;;;4.40;99.90;;;;;;4965913;28;20394;-79
2021/04/24 05:50:47;;;;;;;7.00;2.50;;;4.60;99.90;;;;;;4939554;28;20463;-78
2021/04/24 05:53:13;;;;;;;3.07;2.30;;;4.70;99.90;;;;;;4959687;28;20417;-78
2021/04/24 05:55:39;;;;;;;2.47;2.20;;;4.80;99.90;;;;;;4958803;28;20428;-78
2021/04/24 05:58:04;;;;;;;2.33;2.13;;;5.00;99.90;;;;;;4968651;28;20417;-78
2021/04/24 06:00:30;;;;;;;2.40;2.20;;;5.00;99.90;;;;;;4987677;28;20389;-79
2021/04/24 06:02:56;;;;;;;3.30;2.38;;;5.10;99.90;;;;;;4989632;28;20397;-78
2021/04/24 06:05:21;;;;;;;2.63;2.20;;;5.10;99.90;;;;;;5006565;28;20410;-78
2021/04/24 06:07:47;;;;;;;2.63;2.33;;;5.20;99.90;;;;;;4971130;28;20395;-79
2021/04/24 06:10:14;;;;;;;2.55;2.35;;;5.30;99.90;;;;;;4994796;28;20469;-77
2021/04/24 06:12:40;;;;;;;5.28;2.58;;;5.40;99.90;;;;;;4986326;28;20531;-78
2021/04/24 06:15:09;;;;;;;2.70;2.22;;;5.50;99.90;;;;;;4952205;28;20834;-78
2021/04/24 06:17:35;;;;;;;2.65;2.20;;;5.60;99.90;;;;;;4976209;28;20409;-78
2021/04/24 06:20:01;;;;;;;2.50;2.25;;;5.70;99.90;;;;;;5005233;28;20735;-78
2021/04/24 06:22:26;;;;;;;3.47;2.57;;;5.80;99.90;;;;;;4988569;28;20396;-79
2021/04/24 06:24:52;;;;;;;2.90;2.28;;;6.00;99.90;;;;;;4960003;28;20412;-79
2021/04/24 06:27:18;;;;;;;2.87;2.43;;;6.10;99.90;;;;;;4978595;28;20492;-79
2021/04/24 06:29:43;;;;;;;2.93;2.40;;;6.20;99.90;;;;;;4992338;28;20405;-79
2021/04/24 06:32:09;;;;;;;4.00;3.20;;;6.50;99.90;;;;;;4997884;28;20406;-80
2021/04/24 06:34:35;;;;;;;3.60;3.00;;;6.60;99.90;;;;;;4997700;28;20421;-79
2021/04/24 06:37:00;;;;;;;2.53;2.22;;;6.60;99.90;;;;;;5009216;28;20408;-79
2021/04/24 06:39:26;;;;;;;3.93;2.87;;;6.80;99.90;;;;;;4985605;28;20393;-78
2021/04/24 06:41:52;;;;;;;3.40;2.43;;;6.90;99.90;;;;;;4986713;28;20397;-77
2021/04/24 06:44:17;;;;;;;2.80;2.60;;;7.00;99.90;;;;;;5001966;28;20399;-79
2021/04/24 06:46:43;;;;;;;5.40;2.93;;;7.10;99.90;;;;;;5020566;28;20391;-79
2021/04/24 06:49:09;;;;;;;3.33;2.70;;;7.20;99.90;;;;;;5011317;28;20384;-79
2021/04/24 06:51:35;;;;;;;4.65;2.83;;;7.20;99.90;;;;;;5038641;28;20491;-79
2021/04/24 06:54:01;;;;;;;3.85;3.05;;;7.00;99.90;;;;;;5039991;28;20395;-79
2021/04/24 06:56:27;;;;;;;3.83;2.60;;;7.30;99.90;;;;;;5037375;28;20473;-79
2021/04/24 06:58:52;;;;;;;3.50;2.67;;;7.40;99.90;;;;;;5012347;28;20399;-79
2021/04/24 07:01:18;;;;;;;5.10;2.70;;;7.60;99.90;;;;;;4983554;28;20424;-78
2021/04/24 07:03:45;;;;;;;3.93;2.60;;;7.70;99.90;;;;;;5031748;28;20415;-79
2021/04/24 07:06:12;;;;;;;3.20;2.30;;;7.80;99.90;;;;;;5036602;28;20399;-79
2021/04/24 07:08:38;;;;;;;2.88;2.58;;;7.90;99.90;;;;;;5028592;28;20422;-79
2021/04/24 07:11:03;;;;;;;5.32;3.20;;;8.00;99.90;;;;;;5022360;28;20432;-81
2021/04/24 07:13:29;;;;;;;3.53;2.58;;;8.00;99.90;;;;;;5008044;28;20405;-80
2021/04/24 07:16:02;;;;;;;2.67;2.47;;;8.10;99.90;;;;;;5014083;28;20409;-78
2021/04/24 07:18:33;;;;;;;2.70;2.38;;;8.30;99.90;;;;;;5040569;28;20447;-79
2021/04/24 07:20:59;;;;;;;3.70;2.50;;;8.40;99.90;;;;;;5002414;28;20470;-79
2021/04/24 07:30:35;;;;;;;4.50;2.90;;;8.60;99.90;;;;;;5005054;28;20977;-79
2021/04/24 07:36:20;;;;;;;2.47;2.28;;;8.90;99.90;;;;;;4963022;28;20398;-78
2021/04/24 07:38:46;;;;;;;2.88;2.50;;;9.10;99.90;;;;;;4909311;28;20418;-76
2021/04/24 07:41:12;;;;;;;2.63;2.43;;;9.30;99.90;;;;;;4934624;28;20476;-78
2021/04/24 07:43:38;;;;;;;4.75;2.45;;;9.30;99.90;;;;;;4941878;28;20914;-75
2021/04/24 07:46:03;;;;;;;4.70;2.78;;;9.30;99.90;;;;;;4923254;28;20396;-78
2021/04/24 07:48:31;;;;;;;2.77;2.47;;;9.50;99.90;;;;;;4968187;28;20395;-81
2021/04/24 07:51:03;;;;;;;2.72;2.53;;;9.80;99.90;;;;;;4946676;28;20740;-79
2021/04/24 07:53:42;;;;;;;3.28;2.47;;;9.80;99.90;;;;;;4962672;28;20422;-81
2021/04/24 07:56:11;;;;;;;3.00;2.70;;;9.80;99.90;;;;;;5004537;28;20418;-81
2021/04/24 07:58:37;;;;;;;6.05;2.47;;;9.80;99.90;;;;;;4981136;28;20403;-81
2021/04/24 08:01:08;;;;;;;2.42;2.17;;;9.90;99.90;;;;;;4972100;28;20428;-81
2021/04/24 08:03:33;;;;;;;5.70;3.10;;;10.00;99.90;;;;;;5005339;28;20394;-80
2021/04/24 08:05:59;;;;;;;2.95;2.65;;;10.40;99.90;;;;;;4988997;28;20390;-80
2021/04/24 08:08:28;;;;;;;4.87;2.20;;;10.40;99.90;;;;;;4943004;28;20389;-81
2021/04/24 08:10:54;;;;;;;2.85;2.60;;;10.60;99.90;;;;;;4957002;28;20480;-79
2021/04/24 08:13:20;;;;;;;4.10;2.83;;;10.80;99.90;;;;;;4974390;28;20485;-81
2021/04/24 08:15:56;;;;;;;3.92;2.92;;;10.80;99.90;;;;;;4993792;28;20420;-82
2021/04/24 08:18:21;;;;;;;2.83;2.53;;;10.70;99.90;;;;;;4967031;23;20411;-77
2021/04/24 08:20:47;;;;;;;3.30;2.42;;;10.80;99.90;;;;;;4957590;28;20750;-78
2021/04/24 08:23:13;;;;;;;2.40;2.20;;;11.00;99.90;;;;;;4954329;28;20397;-78
2021/04/24 08:25:38;;;;;;;3.60;2.53;;;11.00;99.90;;;;;;4938031;28;20453;-78
2021/04/24 08:28:04;;;;;;;3.03;2.30;;;11.00;99.90;;;;;;4969690;28;20396;-78
2021/04/24 08:30:30;;;;;;;2.40;2.20;;;11.10;99.90;;;;;;4951911;28;20380;-79
2021/04/24 08:32:57;;;;;;;2.75;2.30;;;11.20;99.90;;;;;;4954495;28;20390;-78
2021/04/24 08:35:22;;;;;;;2.83;2.28;;;11.20;99.90;;;;;;4958098;28;20459;-79
2021/04/24 08:37:48;;;;;;;3.23;2.10;;;11.20;99.90;;;;;;4968842;28;20804;-78
2021/04/24 08:40:15;;;;;;;5.25;2.70;;;11.40;99.90;;;;;;4947024;28;20396;-79
2021/04/24 08:42:41;;;;;;;3.03;2.38;;;11.50;99.90;;;;;;4947985;28;20405;-80
2021/04/24 08:45:17;;;;;;;2.30;2.10;;;11.50;99.90;;;;;;4968671;28;20411;-79
2021/04/24 08:47:45;;;;;;;2.90;2.30;;;11.60;99.90;;;;;;4938807;28;20480;-79
2021/04/24 08:50:13;;;;;;;2.42;2.22;;;11.60;99.90;;;;;;4939664;28;20401;-80
2021/04/24 08:52:39;;;;;;;2.50;2.30;;;11.60;99.90;;;;;;4939133;28;20419;-80
2021/04/24 08:55:05;;;;;;;3.45;2.28;;;11.70;99.90;;;;;;4939959;28;20805;-80
2021/04/24 08:57:31;;;;;;;2.58;2.38;;;11.70;99.90;;;;;;4939191;28;20828;-80
2021/04/24 08:59:57;;;;;;;2.92;2.47;;;11.70;99.90;;;;;;4955631;28;20400;-79
2021/04/24 09:02:22;;;;;;;2.20;2.00;;;11.60;99.90;;;;;;4956354;28;20697;-79
2021/04/24 09:04:48;;;;;;;2.53;2.20;;;11.70;99.90;;;;;;4955166;28;20408;-79
2021/04/24 09:07:14;;;;;;;3.40;2.20;;;11.50;99.90;;;;;;4938208;28;20512;-80
2021/04/24 09:09:39;;;;;;;2.67;2.47;;;11.30;99.90;;;;;;4962617;28;20785;-80
2021/04/24 09:12:05;;;;;;;2.37;2.10;;;11.00;99.90;;;;;;4954061;28;20830;-80
2021/04/24 09:14:31;;;;;;;2.75;2.22;;;11.00;99.90;;;;;;4947771;28;20412;-80
2021/04/24 09:16:57;;;;;;;3.83;2.33;;;11.00;99.90;;;;;;4923015;28;20404;-80
2021/04/24 09:19:35;;;;;;;2.38;2.17;;;11.20;99.90;;;;;;4949095;28;20401;-80
2021/04/24 09:22:21;;;;;;;3.47;2.40;;;11.40;99.90;;;;;;4988078;28;20783;-80
2021/04/24 09:24:49;;;;;;;2.63;2.40;;;11.40;99.90;;;;;;4958007;28;20396;-80
2021/04/24 09:27:15;;;;;;;3.80;2.70;;;11.20;99.90;;;;;;4936345;28;20492;-81
2021/04/24 09:29:41;;;;;;;3.35;2.42;;;11.20;99.90;;;;;;4957126;28;20408;-80
2021/04/24 09:32:20;;;;;;;5.75;2.70;;;11.20;99.90;;;;;;4955726;28;20463;-79
2021/04/24 09:34:47;;;;;;;4.25;2.25;;;11.00;99.90;;;;;;4969084;28;20415;-81
2021/04/24 09:37:15;;;;;;;2.63;2.28;;;10.90;99.90;;;;;;4956117;28;20447;-81
2021/04/24 09:39:48;;;;;;;3.07;2.33;;;10.90;99.90;;;;;;4951074;28;20899;-80
2021/04/24 09:42:39;;;;;;;3.63;2.20;;;11.00;99.90;;;;;;4955800;28;20412;-79
2021/04/24 09:45:25;;;;;;;2.25;2.03;;;11.20;99.90;;;;;;4971280;28;20405;-81
2021/04/24 09:47:51;;;;;;;2.35;1.98;;;11.50;99.90;;;;;;4972580;28;20396;-81
2021/04/24 09:50:21;;;;;;;3.47;1.90;;;11.90;99.90;;;;;;4922267;28;20410;-81
2021/04/24 09:52:47;;;;;;;2.50;2.00;;;12.40;99.90;;;;;;4962216;28;20428;-81
2021/04/24 09:55:34;;;;;;;2.40;2.20;;;12.60;99.90;;;;;;4960125;28;20415;-81
2021/04/24 09:58:00;;;;;;;2.03;1.83;;;12.80;99.90;;;;;;4957574;28;20412;-80
2021/04/24 10:00:27;;;;;;;2.60;1.97;;;12.80;99.90;;;;;;4967722;28;20423;-80
2021/04/24 10:02:53;;;;;;;2.25;1.95;;;12.60;99.90;;;;;;4936343;28;20410;-80
2021/04/24 10:05:20;;;;;;;1.90;1.70;;;12.60;99.90;;;;;;4955182;28;20495;-80
2021/04/24 10:07:49;;;;;;;1.90;1.80;;;12.20;99.90;;;;;;4960712;28;20485;-81
2021/04/24 10:10:35;;;;;;;2.85;2.55;;;11.90;99.90;;;;;;4946390;28;20423;-81
2021/04/24 10:13:08;;;;;;;4.57;2.03;;;12.00;99.90;;;;;;4943011;28;20411;-81
2021/04/24 10:15:44;;;;;;;2.92;2.00;;;11.80;99.90;;;;;;4945960;28;20459;-79
2021/04/24 10:18:11;;;;;;;2.20;2.00;;;11.80;99.90;;;;;;4951102;28;20900;-79
2021/04/24 10:20:42;;;;;;;3.72;1.75;;;12.00;99.90;;;;;;4954976;28;20400;-81
2021/04/24 10:23:08;;;;;;;3.05;2.22;;;12.00;98.80;;;;;;4988323;28;20407;-81
2021/04/24 10:25:35;;;;;;;2.55;2.10;;;12.20;99.90;;;;;;4949287;28;20904;-80
2021/04/24 10:28:01;;;;;;;6.57;2.00;;;11.90;98.70;;;;;;4967258;28;20426;-80
2021/04/24 10:30:27;;;;;;;2.22;1.55;;;11.90;99.20;;;;;;4969551;28;20414;-81
2021/04/24 10:32:53;;;;;;;2.37;2.07;;;11.90;96.70;;;;;;4957826;28;20524;-80
2021/04/24 10:38:13;;;;;;;2.00;1.80;;;11.90;97.80;;;;;;4958324;28;20439;-80
2021/04/24 10:40:48;;;;;;;2.20;2.00;;;12.00;99.20;;;;;;4895004;28;20911;-78
2021/04/24 10:43:20;;;;;;;2.67;2.28;;;12.10;99.30;;;;;;4897804;28;20489;-79
2021/04/24 10:45:45;;;;;;;2.15;1.95;;;12.10;97.50;;;;;;4952879;28;20411;-78
2021/04/24 10:48:22;;;;;;;3.20;1.70;;;12.20;99.90;;;;;;4943732;28;20401;-80
2021/04/24 10:50:48;;;;;;;3.13;2.00;;;12.20;98.50;;;;;;4926983;28;20417;-78
2021/04/24 10:53:30;;;;;;;2.25;1.80;;;12.30;98.90;;;;;;4944545;28;20404;-82
2021/04/24 10:55:59;;;;;;;2.10;1.90;;;12.10;96.30;;;;;;4957590;23;20416;-81
2021/04/24 10:58:26;;;;;;;2.20;2.00;;;12.50;96.30;;;;;;5037108;23;20431;-87
2021/04/24 11:00:59;;;;;;;1.90;1.80;;;12.70;95.90;;;;;;4980501;28;20445;-86
2021/04/24 11:03:45;;;;;;;5.90;1.80;;;13.10;97.40;;;;;;5008406;28;20476;-87
2021/04/24 11:06:11;;;;;;;2.05;1.85;;;13.20;93.60;;;;;;4997952;28;20390;-82
2021/04/24 11:08:37;;;;;;;1.90;1.60;;;13.50;95.10;;;;;;5006900;28;20394;-86
2021/04/24 11:11:11;;;;;;;1.75;1.65;;;13.90;92.50;;;;;;4972070;28;20473;-89
2021/04/24 11:13:37;;;;;;;2.00;1.83;;;13.60;93.60;;;;;;4974525;28;20404;-85
2021/04/24 11:16:03;;;;;;;3.40;1.90;;;13.40;92.70;;;;;;4986603;28;20408;-88
2021/04/24 11:18:30;;;;;;;2.65;1.73;;;13.20;94.40;;;;;;4958043;28;20404;-87
2021/04/24 11:21:06;;;;;;;1.55;1.45;;;12.70;91.90;;;;;;4971632;28;20378;-88
2021/04/24 11:23:32;;;;;;;1.67;1.58;;;13.20;94.40;;;;;;5003324;28;20413;-89
2021/04/24 11:26:06;;;;;;;1.88;1.73;;;13.80;91.40;;;;;;5007872;28;20425;-89
2021/04/24 11:28:32;;;;;;;1.65;1.55;;;14.20;90.00;;;;;;4978031;28;20396;-86
2021/04/24 11:31:01;;;;;;;1.80;1.65;;;14.30;85.00;;;;;;5002037;28;20457;-90
2021/04/24 11:33:44;;;;;;;1.40;1.30;;;14.50;82.70;;;;;;5013146;28;20398;-85
2021/04/24 11:36:13;;;;;;;1.63;1.23;;;14.20;83.50;;;;;;4990761;28;20436;-89
2021/04/24 11:38:54;;;;;;;2.30;1.50;;;13.70;82.90;;;;;;5006639;28;20382;-85
2021/04/24 11:41:39;;;;;;;1.45;1.35;;;13.50;84.40;;;;;;5013324;28;20425;-84
2021/04/24 11:44:17;;;;;;;1.40;1.30;;;13.50;86.20;;;;;;4997945;28;20515;-84
2021/04/24 11:46:45;;;;;;;2.20;1.40;;;13.90;81.80;;;;;;4984686;28;20452;-85
2021/04/24 11:49:14;;;;;;;1.60;1.50;;;14.00;83.20;;;;;;5015184;28;20396;-89
2021/04/24 11:51:59;;;;;;;2.25;1.75;;;13.90;84.70;;;;;;4990024;28;20457;-87
2021/04/24 11:54:26;;;;;;;2.35;1.60;;;14.20;87.80;;;;;;5005385;28;20410;-87
2021/04/24 11:56:52;;;;;;;1.60;1.50;;;14.10;82.60;;;;;;4993122;28;20398;-87
2021/04/24 11:59:25;;;;;;;1.60;1.50;;;14.10;84.30;;;;;;4972489;28;20477;-82
2021/04/24 12:01:59;;;;;;;1.60;1.50;;;14.30;79.40;;;;;;4961548;28;20449;-85
2021/04/24 12:04:26;;;;;;;1.40;1.30;;;14.90;85.10;;;;;;4987283;28;20408;-87
2021/04/24 12:07:11;;;;;;;1.60;1.50;;;15.60;79.20;;;;;;4978534;28;20412;-90
2021/04/24 12:09:46;;;;;;;1.88;1.48;;;15.90;77.70;;;;;;5003087;28;20390;-92
2021/04/24 12:12:11;;;;;;;1.70;1.60;;;16.50;77.70;;;;;;5013764;28;20414;-89
2021/04/24 12:14:37;;;;;;;1.40;1.30;;;15.90;72.90;;;;;;4985159;28;20425;-89
2021/04/24 12:17:07;;;;;;;1.37;1.27;;;15.90;73.70;;;;;;4968651;28;20407;-87
2021/04/24 12:19:38;;;;;;;1.60;1.50;;;15.80;71.10;;;;;;4999381;28;21241;-85
2021/04/24 12:22:06;;;;;;;1.55;1.45;;;16.10;75.10;;;;;;4985411;28;20401;-89
2021/04/24 12:24:36;;;;;;;2.47;1.50;;;17.10;74.00;;;;;;5023562;28;20462;-89
2021/04/24 12:27:20;;;;;;;2.10;1.40;;;17.60;70.50;;;;;;4983588;28;20407;-89
2021/04/24 12:29:48;;;;;;;2.53;1.40;;;17.10;62.90;;;;;;4969907;28;20414;-89
2021/04/24 12:35:27;;;;;;;1.60;1.50;;;15.80;64.60;;;;;;3688753;23;20393;-85
2021/04/24 12:38:07;;;;;;;1.60;1.50;;;15.80;64.80;;;;;;5005875;28;20398;-82
2021/04/24 12:40:37;;;;;;;1.42;1.33;;;15.60;66.80;;;;;;5029562;28;20821;-87
2021/04/24 12:43:04;;;;;;;1.52;1.42;;;15.40;64.70;;;;;;5008067;28;20382;-86
2021/04/24 12:45:30;;;;;;;1.20;1.20;;;15.60;66.70;;;;;;5001356;28;20400;-85
2021/04/24 12:47:56;;;;;;;1.63;1.52;;;15.70;64.70;;;;;;5027232;28;20422;-84
2021/04/24 12:50:30;;;;;;;5.07;2.00;;;16.00;64.70;;;;;;5028841;28;20385;-87
2021/04/24 12:52:58;;;;;;;1.48;1.38;;;16.00;64.70;;;;;;4990334;28;20410;-88
2021/04/24 12:55:34;;;;;;;2.30;1.57;;;16.40;65.30;;;;;;4990261;28;20414;-88
2021/04/24 12:58:02;;;;;;;2.27;1.60;;;16.60;64.30;;;;;;4988762;28;20428;-86
2021/04/24 13:00:52;;;;;;;1.60;1.50;;;16.50;63.50;;;;;;5025715;28;20975;-83
2021/04/24 13:03:48;;;;;;;1.73;1.60;;;16.10;65.60;;;;;;4984991;28;20388;-86
2021/04/24 13:06:24;;;;;;;1.92;1.50;;;15.70;63.80;;;;;;4973441;28;20466;-85
2021/04/24 13:09:06;;;;;;;3.50;1.70;;;15.30;65.10;;;;;;4996519;28;20394;-87
2021/04/24 13:11:52;;;;;;;1.57;1.47;;;15.30;66.60;;;;;;5017149;28;20397;-87
2021/04/24 13:14:20;;;;;;;1.77;1.45;;;15.80;63.20;;;;;;5004404;28;20438;-89
2021/04/24 13:16:45;;;;;;;2.60;1.60;;;16.20;66.00;;;;;;4976134;28;20424;-87